createdAt,value
2019-04-05T00:01:27.605Z,5.07
2019-04-05T00:04:17.498Z,5.05
2019-04-05T00:07:07.784Z,5.03
2019-04-05T00:09:57.641Z,5.03
2019-04-05T00:12:31.306Z,5.07
2019-04-05T00:15:21.474Z,5.13
2019-04-05T00:18:15.178Z,5.15
2019-04-05T00:20:48.672Z,5.10
2019-04-05T00:23:38.860Z,5.06
2019-04-05T00:26:28.772Z,5.04
2019-04-05T00:29:19.118Z,4.99
2019-04-05T00:32:01.222Z,4.98
2019-04-05T00:34:44.478Z,4.95
2019-04-05T00:37:26.208Z,5.02
2019-04-05T00:40:16.637Z,4.95
2019-04-05T00:42:47.827Z,4.91
2019-04-05T00:45:28.474Z,4.96
2019-04-05T00:48:16.788Z,4.85
2019-04-05T00:50:47.989Z,4.84
2019-04-05T00:53:20.170Z,4.68
2019-04-05T00:56:10.090Z,4.57
2019-04-05T00:58:41.609Z,4.56
2019-04-05T01:01:14.113Z,4.59
2019-04-05T01:04:04.098Z,4.55
2019-04-05T01:06:38.208Z,4.58
2019-04-05T01:09:33.439Z,4.59
2019-04-05T01:15:54.765Z,4.65
2019-04-05T01:21:50.644Z,4.71
2019-04-05T01:24:32.189Z,4.67
2019-04-05T01:30:12.581Z,4.73
2019-04-05T01:33:03.276Z,4.70
2019-04-05T01:35:53.765Z,4.75
2019-04-05T01:41:41.481Z,4.81
2019-04-05T01:44:16.992Z,4.73
2019-04-05T01:47:33.102Z,4.71
2019-04-05T01:50:22.923Z,4.65
2019-04-05T01:53:13.991Z,4.73
2019-04-05T01:56:04.847Z,4.66
2019-04-05T01:58:55.003Z,4.68
2019-04-05T02:01:46.731Z,4.13
2019-04-05T02:04:38.000Z,4.73
2019-04-05T02:07:46.938Z,4.68
2019-04-05T02:10:19.075Z,4.72
2019-04-05T02:13:04.399Z,4.72
2019-04-05T02:15:46.661Z,4.74
2019-04-05T02:21:12.590Z,4.73
2019-04-05T02:23:54.952Z,4.72
2019-04-05T02:29:26.729Z,3.95
2019-04-05T02:32:11.579Z,4.72
2019-04-05T02:34:54.187Z,4.77
2019-04-05T02:40:23.858Z,4.86
2019-04-05T02:43:37.364Z,4.80
2019-04-05T02:46:23.780Z,4.81
2019-04-05T02:49:06.043Z,4.82
2019-04-05T02:51:40.538Z,4.84
2019-04-05T02:54:39.620Z,4.93
2019-04-05T02:57:29.626Z,4.10
2019-04-05T03:00:21.040Z,4.85
2019-04-05T03:02:53.626Z,4.89
2019-04-05T03:05:33.424Z,4.86
2019-04-05T03:08:23.834Z,4.85
2019-04-05T03:11:34.987Z,4.84
2019-04-05T03:14:45.017Z,4.80
2019-04-05T03:17:39.027Z,4.83
2019-04-05T03:20:11.316Z,4.86
2019-04-05T03:26:20.865Z,4.80
2019-04-05T03:29:12.924Z,4.75
2019-04-05T03:32:03.489Z,4.65
2019-04-05T03:34:37.808Z,4.68
2019-04-05T03:37:10.130Z,4.66
2019-04-05T03:39:42.427Z,4.80
2019-04-05T03:42:33.927Z,4.80
2019-04-05T03:45:24.006Z,4.80
2019-04-05T03:47:57.064Z,4.84
2019-04-05T03:50:48.623Z,4.88
2019-04-05T03:53:38.618Z,4.87
2019-04-05T03:56:29.098Z,4.94
2019-04-05T03:59:24.717Z,4.86
2019-04-05T04:02:15.021Z,4.82
2019-04-05T04:07:58.959Z,4.78
2019-04-05T04:11:09.736Z,4.81
2019-04-05T04:14:00.949Z,4.76
2019-04-05T04:16:51.594Z,3.89
2019-04-05T04:19:41.859Z,4.74
2019-04-05T04:22:24.847Z,4.78
2019-04-05T04:25:07.362Z,4.76
2019-04-05T04:27:40.449Z,4.76
2019-04-05T04:30:31.672Z,4.79
2019-04-05T04:33:14.427Z,4.82
2019-04-05T04:35:55.984Z,4.85
2019-04-05T04:38:47.658Z,4.79
2019-04-05T04:41:38.963Z,4.82
2019-04-05T04:44:10.797Z,4.84
2019-04-05T04:47:09.250Z,4.88
2019-04-05T04:49:41.035Z,4.87
2019-04-05T04:52:13.068Z,4.87
2019-04-05T04:55:03.119Z,4.87
2019-04-05T04:58:16.080Z,4.83
2019-04-05T05:00:48.967Z,4.80
2019-04-05T05:05:59.095Z,4.92
2019-04-05T05:08:49.944Z,4.95
2019-04-05T05:11:39.983Z,5.01
2019-04-05T05:14:31.617Z,4.96
2019-04-05T05:17:42.886Z,4.97
2019-04-05T05:20:34.436Z,4.96
2019-04-05T05:23:09.359Z,4.98
2019-04-05T05:25:53.988Z,4.98
2019-04-05T05:28:34.690Z,4.98
2019-04-05T05:31:26.311Z,4.97
2019-04-05T05:34:16.561Z,5.07
2019-04-05T05:37:08.867Z,5.07
2019-04-05T05:39:40.687Z,5.14
2019-04-05T05:42:12.335Z,5.17
2019-04-05T05:45:02.263Z,5.11
2019-04-05T05:47:33.449Z,5.12
2019-04-05T05:50:05.428Z,5.19
2019-04-05T05:55:33.916Z,5.28
2019-04-05T05:58:07.413Z,5.37
2019-04-05T06:00:38.617Z,5.45
2019-04-05T06:03:28.815Z,5.52
2019-04-05T06:06:18.759Z,5.58
2019-04-05T06:09:19.687Z,5.59
2019-04-05T06:12:03.967Z,5.63
2019-04-05T06:14:53.942Z,5.67
2019-04-05T06:17:43.855Z,5.73
2019-04-05T06:20:15.812Z,5.80
2019-04-05T06:22:47.684Z,5.72
2019-04-05T06:25:19.083Z,5.74
2019-04-05T06:28:09.185Z,5.75
2019-04-05T06:30:59.190Z,5.86
2019-04-05T06:33:49.215Z,5.60
2019-04-05T06:36:21.795Z,6.03
2019-04-05T06:38:52.938Z,6.02
2019-04-05T06:41:24.054Z,5.97
2019-04-05T06:43:56.235Z,6.06
2019-04-05T06:46:45.875Z,6.02
2019-04-05T06:49:17.944Z,5.88
2019-04-05T06:51:50.004Z,5.94
2019-04-05T06:54:20.839Z,5.86
2019-04-05T06:56:51.696Z,5.83
2019-04-05T06:59:41.491Z,5.86
2019-04-05T07:02:12.552Z,5.88
2019-04-05T07:04:43.515Z,5.96
2019-04-05T07:07:17.667Z,5.96
2019-04-05T07:09:49.341Z,5.93
2019-04-05T07:12:21.750Z,5.96
2019-04-05T07:15:11.667Z,5.93
2019-04-05T07:18:01.468Z,5.99
2019-04-05T07:20:32.310Z,6.16
2019-04-05T07:23:22.099Z,6.26
2019-04-05T07:25:53.076Z,6.27
2019-04-05T07:28:25.223Z,6.28
2019-04-05T07:31:05.812Z,6.32
2019-04-05T07:33:36.774Z,6.23
2019-04-05T07:36:07.750Z,6.10
2019-04-05T07:38:57.466Z,6.19
2019-04-05T07:41:33.341Z,6.34
2019-04-05T07:44:36.964Z,6.43
2019-04-05T07:46:57.057Z,6.40
2019-04-05T07:49:32.067Z,6.47
2019-04-05T07:52:22.133Z,6.64
2019-04-05T07:54:55.339Z,6.02
2019-04-05T07:57:46.734Z,6.57
2019-04-05T08:00:55.199Z,6.68
2019-04-05T08:03:46.320Z,6.67
2019-04-05T08:06:37.564Z,6.78
2019-04-05T08:09:27.791Z,6.88
2019-04-05T08:11:58.872Z,6.93
2019-04-05T08:14:30.680Z,6.90
2019-04-05T08:17:01.874Z,6.90
2019-04-05T08:19:32.685Z,6.97
2019-04-05T08:22:22.574Z,7.09
2019-04-05T08:25:12.315Z,6.99
2019-04-05T08:28:02.234Z,6.05
2019-04-05T08:30:52.015Z,6.93
2019-04-05T08:33:22.833Z,6.98
2019-04-05T08:35:54.182Z,6.89
2019-04-05T08:39:02.967Z,6.88
2019-04-05T08:41:52.779Z,6.84
2019-04-05T08:45:03.147Z,6.84
2019-04-05T08:47:53.119Z,6.92
2019-04-05T08:50:25.140Z,7.00
2019-04-05T08:52:56.127Z,7.06
2019-04-05T08:55:45.999Z,6.96
2019-04-05T08:58:35.951Z,6.79
2019-04-05T09:01:06.992Z,6.77
2019-04-05T09:03:38.371Z,6.88
2019-04-05T09:06:09.510Z,6.99
2019-04-05T09:08:40.455Z,7.07
2019-04-05T09:11:11.852Z,7.19
2019-04-05T09:14:02.889Z,7.26
2019-04-05T09:19:22.769Z,7.57
2019-04-05T09:21:43.359Z,7.69
2019-04-05T09:24:14.308Z,7.93
2019-04-05T09:27:04.263Z,8.19
2019-04-05T09:29:59.520Z,8.55
2019-04-05T09:32:30.760Z,8.90
2019-04-05T09:35:01.601Z,9.16
2019-04-05T09:37:32.508Z,9.40
2019-04-05T09:40:22.559Z,9.53
2019-04-05T09:42:53.931Z,9.84
2019-04-05T09:45:45.748Z,9.86
2019-04-05T09:48:36.255Z,10.07
2019-04-05T09:51:07.334Z,10.30
2019-04-05T09:53:39.074Z,10.64
2019-04-05T09:56:09.924Z,10.90
2019-04-05T09:58:40.752Z,10.96
2019-04-05T10:01:11.667Z,11.15
2019-04-05T10:03:42.582Z,11.24
2019-04-05T10:06:13.418Z,11.18
2019-04-05T10:08:44.787Z,11.23
2019-04-05T10:11:15.658Z,11.11
2019-04-05T10:14:05.872Z,11.10
2019-04-05T10:16:42.016Z,11.72
2019-04-05T10:19:22.656Z,12.32
2019-04-05T10:21:53.597Z,12.89
2019-04-05T10:24:24.491Z,12.96
2019-04-05T10:27:14.201Z,13.16
2019-04-05T10:29:45.785Z,13.19
2019-04-05T10:32:35.892Z,12.76
2019-04-05T10:35:07.914Z,12.24
2019-04-05T10:37:39.057Z,12.52
2019-04-05T10:40:11.052Z,12.52
2019-04-05T10:43:00.684Z,12.47
2019-04-05T10:45:31.608Z,11.76
2019-04-05T10:48:21.225Z,11.76
2019-04-05T10:51:10.966Z,11.33
2019-04-05T10:53:41.849Z,11.70
2019-04-05T10:56:33.333Z,11.76
2019-04-05T10:59:24.129Z,11.72
2019-04-05T11:02:15.826Z,11.28
2019-04-05T11:04:47.803Z,10.62
2019-04-05T11:07:18.884Z,11.95
2019-04-05T11:12:46.255Z,11.72
2019-04-05T11:15:36.533Z,11.91
2019-04-05T11:18:07.653Z,11.80
2019-04-05T11:20:57.624Z,11.65
2019-04-05T11:23:34.114Z,11.56
2019-04-05T11:26:07.795Z,11.07
2019-04-05T11:28:38.774Z,11.01
2019-04-05T11:31:28.495Z,11.06
2019-04-05T11:34:00.131Z,11.06
2019-04-05T11:36:41.877Z,10.98
2019-04-05T11:39:12.820Z,10.00
2019-04-05T11:42:22.637Z,10.37
2019-04-05T11:44:54.533Z,10.26
2019-04-05T11:47:44.540Z,9.86
2019-04-05T11:50:16.142Z,9.81
2019-04-05T11:53:06.536Z,9.82
2019-04-05T11:55:38.351Z,9.62
2019-04-05T11:58:09.234Z,9.57
2019-04-05T12:01:17.773Z,9.63
2019-04-05T12:04:08.117Z,9.58
2019-04-05T12:06:39.116Z,9.67
2019-04-05T12:09:31.500Z,9.77
2019-04-05T12:12:02.288Z,9.78
2019-04-05T12:14:52.299Z,9.74
2019-04-05T12:17:42.167Z,9.69
2019-04-05T12:20:33.251Z,9.77
2019-04-05T12:23:24.938Z,9.70
2019-04-05T12:25:55.800Z,9.63
2019-04-05T12:28:45.510Z,9.58
2019-04-05T12:34:45.162Z,9.55
2019-04-05T12:37:34.927Z,9.50
2019-04-05T12:40:10.279Z,9.43
2019-04-05T12:42:59.908Z,9.62
2019-04-05T12:45:49.971Z,9.72
2019-04-05T12:48:39.636Z,9.68
2019-04-05T12:51:17.581Z,9.65
2019-04-05T12:53:48.798Z,9.39
2019-04-05T12:56:19.691Z,9.40
2019-04-05T12:58:55.505Z,9.36
2019-04-05T13:01:45.740Z,9.29
2019-04-05T13:04:20.313Z,9.29
2019-04-05T13:07:09.517Z,9.36
2019-04-05T13:09:59.254Z,9.22
2019-04-05T13:12:30.333Z,9.29
2019-04-05T13:15:11.813Z,9.37
2019-04-05T13:17:52.791Z,9.52
2019-04-05T13:20:42.636Z,9.56
2019-04-05T13:23:14.441Z,9.73
2019-04-05T13:26:04.864Z,9.77
2019-04-05T13:28:38.830Z,9.76
2019-04-05T13:31:29.088Z,9.75
2019-04-05T13:34:02.790Z,9.72
2019-04-05T13:36:53.025Z,9.69
2019-04-05T13:39:42.991Z,9.77
2019-04-05T13:42:14.056Z,9.63
2019-04-05T13:45:22.039Z,9.53
2019-04-05T13:48:12.087Z,9.60
2019-04-05T13:51:02.348Z,9.57
2019-04-05T13:53:33.521Z,9.60
2019-04-05T13:56:23.694Z,9.71
2019-04-05T13:59:13.686Z,9.84
2019-04-05T14:02:06.252Z,9.98
2019-04-05T14:04:36.675Z,10.06
2019-04-05T14:07:26.818Z,10.10
2019-04-05T14:10:16.699Z,10.02
2019-04-05T14:13:07.663Z,9.97
2019-04-05T14:15:58.185Z,9.87
2019-04-05T14:18:29.473Z,9.74
2019-04-05T14:21:00.872Z,9.68
2019-04-05T14:23:39.500Z,9.74
2019-04-05T14:26:19.985Z,9.73
2019-04-05T14:28:54.071Z,9.65
2019-04-05T14:31:25.247Z,9.68
2019-04-05T14:33:57.736Z,9.68
2019-04-05T14:36:39.472Z,9.65
2019-04-05T14:39:10.980Z,9.71
2019-04-05T14:41:43.433Z,9.74
2019-04-05T14:44:20.808Z,9.70
2019-04-05T14:46:51.740Z,9.69
2019-04-05T14:49:41.837Z,9.74
2019-04-05T14:52:31.850Z,9.70
2019-04-05T14:55:21.826Z,9.49
2019-04-05T14:58:29.688Z,9.41
2019-04-05T15:01:00.652Z,9.22
2019-04-05T15:04:01.077Z,9.23
2019-04-05T15:06:51.456Z,9.27
2019-04-05T15:09:25.367Z,9.28
2019-04-05T15:11:58.661Z,9.24
2019-04-05T15:14:32.843Z,9.18
2019-04-05T15:17:22.553Z,9.08
2019-04-05T15:23:09.900Z,9.24
2019-04-05T15:26:02.944Z,9.15
2019-04-05T15:31:59.618Z,9.24
2019-04-05T15:34:52.563Z,9.17
2019-04-05T15:40:25.743Z,9.04
2019-04-05T15:43:25.045Z,9.05
2019-04-05T15:45:55.960Z,9.04
2019-04-05T15:48:46.027Z,9.04
2019-04-05T15:51:35.952Z,9.04
2019-04-05T15:57:03.385Z,9.01
2019-04-05T16:02:33.906Z,8.99
2019-04-05T16:05:16.329Z,9.04
2019-04-05T16:07:47.462Z,8.96
2019-04-05T16:10:18.546Z,8.92
2019-04-05T16:13:09.315Z,8.86
2019-04-05T16:16:02.548Z,8.84
2019-04-05T16:18:33.561Z,8.83
2019-04-05T16:21:23.833Z,8.82
2019-04-05T16:27:09.263Z,8.88
2019-04-05T16:30:02.380Z,8.84
2019-04-05T16:32:58.581Z,8.81
2019-04-05T16:35:29.633Z,8.83
2019-04-05T16:40:55.340Z,8.11
2019-04-05T16:43:50.404Z,8.86
2019-04-05T16:56:00.429Z,8.75
2019-04-05T16:58:52.231Z,8.70
2019-04-05T17:01:34.595Z,8.64
2019-04-05T17:04:08.610Z,8.61
2019-04-05T17:07:02.353Z,8.59
2019-04-05T17:09:37.964Z,8.55
2019-04-05T17:18:48.546Z,8.54
2019-04-05T17:21:40.394Z,8.54
2019-04-05T17:24:52.124Z,8.53
2019-04-05T17:28:01.625Z,8.51
2019-04-05T17:31:29.567Z,8.51
2019-04-05T17:35:00.283Z,8.46
2019-04-05T17:40:58.664Z,8.40
2019-04-05T17:43:30.415Z,8.40
2019-04-05T17:46:20.543Z,8.42
2019-04-05T17:49:10.339Z,8.40
2019-04-05T17:51:42.388Z,8.41
2019-04-05T17:54:17.661Z,8.37
2019-04-05T17:56:49.832Z,8.34
2019-04-05T17:59:25.565Z,8.33
2019-04-05T18:01:57.096Z,8.30
2019-04-05T18:04:31.659Z,8.30
2019-04-05T18:07:03.294Z,8.28
2019-04-05T18:09:37.251Z,8.26
2019-04-05T18:12:12.809Z,8.24
2019-04-05T18:15:05.586Z,8.22
2019-04-05T18:17:57.614Z,8.22
2019-04-05T18:20:28.656Z,8.20
2019-04-05T18:23:25.303Z,8.17
2019-04-05T18:26:12.310Z,8.15
2019-04-05T18:31:41.738Z,8.12
2019-04-05T18:34:31.592Z,8.16
2019-04-05T18:37:03.987Z,8.15
2019-04-05T18:39:55.158Z,8.12
2019-04-05T18:45:07.233Z,8.09
2019-04-05T18:47:57.739Z,8.12
2019-04-05T18:50:37.253Z,8.10
2019-04-05T18:53:37.527Z,8.10
2019-04-05T18:56:21.820Z,8.07
2019-04-05T18:59:16.739Z,8.04
2019-04-05T19:01:50.816Z,8.04
2019-04-05T19:04:42.716Z,8.09
2019-04-05T19:07:13.897Z,8.03
2019-04-05T19:13:16.733Z,8.02
2019-04-05T19:26:02.144Z,8.03
2019-04-05T19:49:11.774Z,7.84
2019-04-05T19:52:01.603Z,7.32
2019-04-05T19:54:49.935Z,7.93
2019-04-05T19:58:29.542Z,7.97
2019-04-05T20:04:47.302Z,7.98
2019-04-05T20:07:42.594Z,7.97
2019-04-05T20:10:14.108Z,7.94
2019-04-05T20:15:57.009Z,7.96
2019-04-05T20:18:38.176Z,7.94
2019-04-05T20:22:04.727Z,7.91
2019-04-05T20:28:28.686Z,7.86
2019-04-05T20:35:04.918Z,7.94
2019-04-05T20:37:56.183Z,7.88
2019-04-05T20:41:14.314Z,7.80
2019-04-05T20:46:54.060Z,7.78
2019-04-05T20:50:06.980Z,7.83
2019-04-05T20:53:17.615Z,7.79
2019-04-05T21:01:54.619Z,7.79
2019-04-05T21:04:45.082Z,7.86
2019-04-05T21:07:23.233Z,7.79
2019-04-05T21:10:03.914Z,7.74
2019-04-05T21:12:53.911Z,7.73
2019-04-05T21:15:53.693Z,7.70
2019-04-05T21:18:44.600Z,7.73
2019-04-05T21:21:41.740Z,7.70
2019-04-05T21:24:52.205Z,7.72
2019-04-05T21:27:42.342Z,7.68
2019-04-05T21:30:38.060Z,7.68
2019-04-05T21:36:51.156Z,7.64
2019-04-05T21:39:49.362Z,7.58
2019-04-05T21:42:30.641Z,7.49
2019-04-05T21:45:13.396Z,7.34
2019-04-05T21:47:59.961Z,7.28
2019-04-05T21:50:33.683Z,7.13
2019-04-05T21:53:24.264Z,6.95
2019-04-05T21:56:18.925Z,6.75
2019-04-05T21:59:08.778Z,6.60
2019-04-05T22:02:02.562Z,6.39
2019-04-05T22:04:54.601Z,6.18
2019-04-05T22:07:44.650Z,6.04
2019-04-05T22:10:34.699Z,6.11
2019-04-05T22:13:24.788Z,6.25
2019-04-05T22:16:14.567Z,6.15
2019-04-05T22:19:06.238Z,5.95
2019-04-05T22:21:48.390Z,5.85
2019-04-05T22:24:34.359Z,5.78
2019-04-05T22:27:27.705Z,5.69
2019-04-05T22:30:17.920Z,5.67
2019-04-05T22:36:27.138Z,5.66
2019-04-05T22:39:21.654Z,5.61
2019-04-05T22:41:52.711Z,5.58
2019-04-05T22:44:42.610Z,5.62
2019-04-05T22:47:32.784Z,5.47
2019-04-05T22:50:06.622Z,5.40
2019-04-05T22:52:56.615Z,5.32
2019-04-05T22:55:49.738Z,5.26
2019-04-05T23:04:37.410Z,5.05
2019-04-05T23:07:28.342Z,4.80
2019-04-05T23:19:42.182Z,4.64
2019-04-05T23:25:37.223Z,4.62
2019-04-05T23:31:21.095Z,4.54
2019-04-05T23:34:01.198Z,4.44
2019-04-05T23:39:42.598Z,4.33
2019-04-05T23:55:33.486Z,4.02
